createdAt,value
2018-10-05T00:00:26.047Z,98652.75
2018-10-05T00:01:30.619Z,98654.34
2018-10-05T00:02:35.132Z,98655.38
2018-10-05T00:03:39.625Z,98654.98
2018-10-05T00:04:44.204Z,98653.36
2018-10-05T00:05:48.704Z,98657.57
2018-10-05T00:06:53.505Z,98651.41
2018-10-05T00:07:58.051Z,98649.36
2018-10-05T00:09:02.555Z,98650.66
2018-10-05T00:10:07.100Z,98650.59
2018-10-05T00:11:11.647Z,98646.38
2018-10-05T00:12:16.211Z,98648.79
2018-10-05T00:13:21.184Z,98647.50
2018-10-05T00:14:25.838Z,98649.61
2018-10-05T00:15:30.929Z,98645.34
2018-10-05T00:16:35.754Z,98649.00
2018-10-05T00:17:40.626Z,98645.94
2018-10-05T00:18:45.270Z,98652.05
2018-10-05T00:19:50.490Z,98651.17
2018-10-05T00:20:55.051Z,98654.83
2018-10-05T00:22:00.620Z,98654.02
2018-10-05T00:23:05.168Z,98655.22
2018-10-05T00:24:09.611Z,98653.97
2018-10-05T00:25:14.143Z,98657.28
2018-10-05T00:26:19.068Z,98651.42
2018-10-05T00:27:23.659Z,98648.06
2018-10-05T00:28:28.141Z,98651.08
2018-10-05T00:29:32.793Z,98654.05
2018-10-05T00:30:37.408Z,98655.78
2018-10-05T00:31:41.921Z,98647.96
2018-10-05T00:32:46.728Z,98653.48
2018-10-05T00:33:51.292Z,98639.57
2018-10-05T00:34:55.725Z,98647.55
2018-10-05T00:36:00.276Z,98644.56
2018-10-05T00:37:04.777Z,98645.77
2018-10-05T00:38:09.421Z,98639.62
2018-10-05T00:39:14.193Z,98638.17
2018-10-05T00:40:18.728Z,98639.80
2018-10-05T00:41:24.336Z,98636.45
2018-10-05T00:42:28.796Z,98639.75
2018-10-05T00:43:33.255Z,98638.84
2018-10-05T00:44:39.567Z,98637.13
2018-10-05T00:45:44.361Z,98638.28
2018-10-05T00:46:49.078Z,98631.17
2018-10-05T00:47:54.196Z,98632.38
2018-10-05T00:48:59.513Z,98631.56
2018-10-05T00:50:04.473Z,98630.74
2018-10-05T00:51:09.388Z,98627.77
2018-10-05T00:52:14.276Z,98629.45
2018-10-05T00:53:18.914Z,98629.87
2018-10-05T00:54:23.383Z,98624.45
2018-10-05T00:55:28.746Z,98630.66
2018-10-05T00:56:33.409Z,98624.80
2018-10-05T00:57:38.737Z,98626.00
2018-10-05T00:58:44.657Z,98630.56
2018-10-05T00:59:50.766Z,98627.68
2018-10-05T01:00:57.188Z,98627.47
2018-10-05T01:02:02.312Z,98624.33
2018-10-05T01:03:07.040Z,98623.14
2018-10-05T01:04:11.565Z,98621.94
2018-10-05T01:05:16.433Z,98620.30
2018-10-05T01:06:21.134Z,98618.67
2018-10-05T01:07:25.609Z,98614.49
2018-10-05T01:08:31.097Z,98610.79
2018-10-05T01:09:35.910Z,98612.90
2018-10-05T01:10:40.892Z,98608.38
2018-10-05T01:11:45.656Z,98605.06
2018-10-05T01:12:50.421Z,98614.23
2018-10-05T01:13:56.030Z,98610.23
2018-10-05T01:15:01.127Z,98612.09
2018-10-05T01:16:05.848Z,98606.33
2018-10-05T01:17:13.036Z,98607.58
2018-10-05T01:18:20.608Z,98608.18
2018-10-05T01:19:26.772Z,98608.18
2018-10-05T01:20:31.705Z,98600.27
2018-10-05T01:21:36.165Z,98600.27
2018-10-05T01:22:40.739Z,98597.89
2018-10-05T01:23:45.782Z,98604.30
2018-10-05T01:24:51.137Z,98599.03
2018-10-05T01:25:55.644Z,98598.50
2018-10-05T01:27:00.101Z,98592.73
2018-10-05T01:28:04.896Z,98592.69
2018-10-05T01:29:09.404Z,98589.80
2018-10-05T01:30:14.197Z,98591.02
2018-10-05T01:31:19.416Z,98583.92
2018-10-05T01:32:24.308Z,98581.42
2018-10-05T01:33:29.465Z,98578.89
2018-10-05T01:34:33.987Z,98580.01
2018-10-05T01:35:38.725Z,98582.55
2018-10-05T01:36:43.162Z,98577.98
2018-10-05T01:37:47.917Z,98580.05
2018-10-05T01:38:53.021Z,98578.72
2018-10-05T01:39:57.537Z,98575.75
2018-10-05T01:41:02.000Z,98572.14
2018-10-05T01:42:06.452Z,98568.00
2018-10-05T01:43:10.922Z,98571.27
2018-10-05T01:44:15.802Z,98571.19
2018-10-05T01:45:20.246Z,98571.11
2018-10-05T01:46:24.849Z,98571.50
2018-10-05T01:47:29.979Z,98562.76
2018-10-05T01:48:34.941Z,98572.31
2018-10-05T01:49:39.401Z,98567.36
2018-10-05T01:50:45.289Z,98567.80
2018-10-05T01:51:49.774Z,98561.55
2018-10-05T01:52:54.240Z,98559.27
2018-10-05T01:53:58.723Z,98560.30
2018-10-05T01:55:03.241Z,98563.03
2018-10-05T01:56:07.713Z,98560.97
2018-10-05T01:57:12.666Z,98557.22
2018-10-05T01:58:17.166Z,98558.39
2018-10-05T01:59:21.689Z,98553.36
2018-10-05T02:00:26.177Z,98553.80
2018-10-05T02:01:31.278Z,98554.27
2018-10-05T02:02:35.833Z,98552.63
2018-10-05T02:03:41.118Z,98556.02
2018-10-05T02:04:45.730Z,98552.84
2018-10-05T02:05:50.227Z,98557.91
2018-10-05T02:06:55.381Z,98558.72
2018-10-05T02:07:59.969Z,98558.30
2018-10-05T02:09:05.349Z,98554.47
2018-10-05T02:10:10.286Z,98557.66
2018-10-05T02:11:14.833Z,98553.02
2018-10-05T02:12:19.365Z,98558.35
2018-10-05T02:13:23.847Z,98556.64
2018-10-05T02:14:28.338Z,98554.53
2018-10-05T02:15:33.630Z,98557.80
2018-10-05T02:16:38.546Z,98555.70
2018-10-05T02:17:43.139Z,98553.59
2018-10-05T02:18:48.162Z,98558.19
2018-10-05T02:19:52.669Z,98551.14
2018-10-05T02:20:57.205Z,98554.84
2018-10-05T02:22:01.742Z,98549.84
2018-10-05T02:23:06.752Z,98551.95
2018-10-05T02:24:11.221Z,98548.38
2018-10-05T02:25:15.713Z,98542.66
2018-10-05T02:26:20.199Z,98543.25
2018-10-05T02:27:24.735Z,98542.05
2018-10-05T02:28:30.029Z,98537.57
2018-10-05T02:29:36.057Z,98535.20
2018-10-05T02:30:40.526Z,98536.13
2018-10-05T02:31:44.997Z,98536.13
2018-10-05T02:32:49.559Z,98533.64
2018-10-05T02:33:54.150Z,98533.98
2018-10-05T02:34:58.637Z,98534.03
2018-10-05T02:36:04.556Z,98531.92
2018-10-05T02:37:09.033Z,98531.84
2018-10-05T02:38:13.516Z,98531.53
2018-10-05T02:39:17.989Z,98527.84
2018-10-05T02:40:22.459Z,98529.00
2018-10-05T02:41:26.989Z,98530.17
2018-10-05T02:42:31.997Z,98522.19
2018-10-05T02:43:36.483Z,98528.41
2018-10-05T02:44:41.284Z,98528.80
2018-10-05T02:45:45.750Z,98516.81
2018-10-05T02:46:50.233Z,98521.48
2018-10-05T02:47:54.715Z,98522.42
2018-10-05T02:48:59.640Z,98521.46
2018-10-05T02:50:04.095Z,98518.19
2018-10-05T02:51:08.545Z,98517.25
2018-10-05T02:52:13.418Z,98509.86
2018-10-05T02:53:18.858Z,98512.43
2018-10-05T02:54:24.026Z,98508.45
2018-10-05T02:55:28.997Z,98510.95
2018-10-05T02:56:33.457Z,98515.55
2018-10-05T02:57:38.123Z,98512.78
2018-10-05T02:58:42.667Z,98509.05
2018-10-05T02:59:47.169Z,98511.07
2018-10-05T03:00:57.373Z,98504.33
2018-10-05T03:02:06.969Z,98505.42
2018-10-05T03:03:11.458Z,98508.19
2018-10-05T03:04:17.277Z,98507.25
2018-10-05T03:05:21.925Z,98508.41
2018-10-05T03:06:28.429Z,98503.81
2018-10-05T03:07:33.396Z,98503.80
2018-10-05T03:08:37.861Z,98509.63
2018-10-05T03:09:42.399Z,98508.37
2018-10-05T03:10:49.880Z,98503.39
2018-10-05T03:11:54.359Z,98503.80
2018-10-05T03:12:58.898Z,98504.25
2018-10-05T03:14:04.119Z,98501.80
2018-10-05T03:15:08.594Z,98503.94
2018-10-05T03:16:13.090Z,98500.75
2018-10-05T03:17:17.579Z,98502.03
2018-10-05T03:18:22.045Z,98500.52
2018-10-05T03:19:26.946Z,98500.67
2018-10-05T03:20:31.928Z,98502.35
2018-10-05T03:21:36.877Z,98498.61
2018-10-05T03:22:41.323Z,98497.13
2018-10-05T03:23:45.815Z,98502.19
2018-10-05T03:24:50.305Z,98498.10
2018-10-05T03:25:55.148Z,98501.06
2018-10-05T03:26:59.652Z,98504.29
2018-10-05T03:28:04.145Z,98496.31
2018-10-05T03:29:08.637Z,98500.41
2018-10-05T03:30:13.169Z,98499.47
2018-10-05T03:31:17.624Z,98502.27
2018-10-05T03:32:22.447Z,98497.28
2018-10-05T03:33:27.225Z,98496.00
2018-10-05T03:34:31.773Z,98499.23
2018-10-05T03:35:36.467Z,98494.28
2018-10-05T03:36:40.985Z,98493.90
2018-10-05T03:37:46.035Z,98495.61
2018-10-05T03:38:50.978Z,98490.16
2018-10-05T03:39:55.868Z,98490.23
2018-10-05T03:41:00.376Z,98491.48
2018-10-05T03:42:04.919Z,98487.48
2018-10-05T03:43:09.974Z,98491.64
2018-10-05T03:44:14.686Z,98487.64
2018-10-05T03:45:19.640Z,98491.84
2018-10-05T03:46:24.470Z,98488.25
2018-10-05T03:47:28.945Z,98492.84
2018-10-05T03:48:33.571Z,98501.56
2018-10-05T03:49:38.499Z,98488.29
2018-10-05T03:50:43.771Z,98489.12
2018-10-05T03:51:48.774Z,98488.33
2018-10-05T03:52:54.237Z,98488.38
2018-10-05T03:54:02.794Z,98484.32
2018-10-05T03:55:07.326Z,98479.02
2018-10-05T03:56:12.017Z,98481.27
2018-10-05T03:57:16.686Z,98484.23
2018-10-05T03:58:21.586Z,98481.39
2018-10-05T03:59:27.300Z,98479.75
2018-10-05T04:00:31.976Z,98478.44
2018-10-05T04:01:37.550Z,98476.05
2018-10-05T04:02:42.425Z,98475.23
2018-10-05T04:03:47.228Z,98473.17
2018-10-05T04:04:52.260Z,98472.36
2018-10-05T04:05:57.088Z,98472.82
2018-10-05T04:07:01.602Z,98470.41
2018-10-05T04:08:07.132Z,98472.19
2018-10-05T04:09:12.285Z,98469.27
2018-10-05T04:10:17.892Z,98467.13
2018-10-05T04:11:23.458Z,98465.45
2018-10-05T04:12:28.070Z,98464.64
2018-10-05T04:13:32.657Z,98464.22
2018-10-05T04:14:37.175Z,98468.77
2018-10-05T04:15:42.531Z,98464.64
2018-10-05T04:16:47.297Z,98463.36
2018-10-05T04:17:52.653Z,98464.57
2018-10-05T04:18:59.190Z,98465.56
2018-10-05T04:20:03.972Z,98463.55
2018-10-05T04:21:08.469Z,98460.27
2018-10-05T04:22:13.222Z,98463.19
2018-10-05T04:23:18.684Z,98459.84
2018-10-05T04:24:24.805Z,98463.16
2018-10-05T04:25:29.552Z,98456.43
2018-10-05T04:26:34.263Z,98459.20
2018-10-05T04:27:39.037Z,98455.86
2018-10-05T04:28:43.950Z,98455.86
2018-10-05T04:29:48.448Z,98455.44
2018-10-05T04:30:54.011Z,98457.95
2018-10-05T04:31:58.530Z,98456.86
2018-10-05T04:33:03.090Z,98451.28
2018-10-05T04:34:07.621Z,98455.87
2018-10-05T04:35:13.031Z,98456.89
2018-10-05T04:36:17.585Z,98453.34
2018-10-05T04:37:22.554Z,98453.77
2018-10-05T04:38:27.088Z,98452.45
2018-10-05T04:39:31.590Z,98447.94
2018-10-05T04:40:36.106Z,98449.57
2018-10-05T04:41:40.623Z,98447.08
2018-10-05T04:42:45.458Z,98448.86
2018-10-05T04:43:50.325Z,98452.66
2018-10-05T04:44:55.995Z,98451.88
2018-10-05T04:46:00.528Z,98453.08
2018-10-05T04:47:05.414Z,98458.02
2018-10-05T04:48:13.759Z,98455.93
2018-10-05T04:49:19.302Z,98456.72
2018-10-05T04:50:24.397Z,98457.56
2018-10-05T04:51:29.962Z,98454.23
2018-10-05T04:52:35.536Z,98458.28
2018-10-05T04:53:40.072Z,98454.13
2018-10-05T04:54:46.137Z,98455.79
2018-10-05T04:55:50.797Z,98452.55
2018-10-05T04:56:55.847Z,98450.10
2018-10-05T04:58:01.141Z,98455.08
2018-10-05T04:59:06.634Z,98449.28
2018-10-05T05:00:11.200Z,98449.35
2018-10-05T05:01:15.883Z,98448.53
2018-10-05T05:02:21.591Z,98450.62
2018-10-05T05:03:26.704Z,98453.12
2018-10-05T05:04:31.668Z,98448.96
2018-10-05T05:05:36.397Z,98451.02
2018-10-05T05:06:41.361Z,98448.50
2018-10-05T05:07:47.488Z,98448.92
2018-10-05T05:08:53.164Z,98448.53
2018-10-05T05:09:58.053Z,98445.23
2018-10-05T05:11:03.282Z,98448.60
2018-10-05T05:12:07.960Z,98447.36
2018-10-05T05:13:13.059Z,98445.30
2018-10-05T05:14:18.185Z,98446.47
2018-10-05T05:15:23.190Z,98447.72
2018-10-05T05:16:27.674Z,98448.08
2018-10-05T05:17:32.637Z,98445.59
2018-10-05T05:18:37.590Z,98441.82
2018-10-05T05:19:42.568Z,98440.19
2018-10-05T05:20:48.422Z,98441.36
2018-10-05T05:21:54.866Z,98442.57
2018-10-05T05:23:00.177Z,98443.45
2018-10-05T05:24:05.302Z,98437.23
2018-10-05T05:25:10.298Z,98443.56
2018-10-05T05:26:15.134Z,98442.74
2018-10-05T05:27:20.195Z,98436.88
2018-10-05T05:28:26.154Z,98436.81
2018-10-05T05:29:32.060Z,98433.80
2018-10-05T05:30:36.753Z,98425.86
2018-10-05T05:44:42.185Z,98427.68
2018-10-05T05:45:48.667Z,98429.28
2018-10-05T05:46:54.426Z,98427.58
2018-10-05T05:48:00.304Z,98426.72
2018-10-05T05:49:05.590Z,98424.69
2018-10-05T05:50:10.524Z,98428.81
2018-10-05T05:51:17.585Z,98425.94
2018-10-05T05:52:26.710Z,98426.72
2018-10-05T05:53:31.362Z,98430.34
2018-10-05T05:54:36.671Z,98429.95
2018-10-05T05:55:42.277Z,98425.22
2018-10-05T05:56:47.537Z,98429.16
2018-10-05T05:57:52.046Z,98424.74
2018-10-05T05:58:56.642Z,98420.82
2018-10-05T06:00:01.700Z,98422.61
2018-10-05T06:01:09.311Z,98422.49
2018-10-05T06:02:14.469Z,98424.66
2018-10-05T06:03:19.597Z,98426.44
2018-10-05T06:04:24.134Z,98426.70
2018-10-05T06:05:28.823Z,98422.76
2018-10-05T06:06:33.446Z,98424.88
2018-10-05T06:07:37.964Z,98418.59
2018-10-05T06:08:42.463Z,98424.95
2018-10-05T06:09:48.317Z,98435.00
2018-10-05T06:10:52.877Z,98428.80
2018-10-05T06:11:57.405Z,98428.99
2018-10-05T06:13:02.398Z,98435.39
2018-10-05T06:14:07.590Z,98429.96
2018-10-05T06:15:14.860Z,98429.34
2018-10-05T06:16:20.393Z,98433.19
2018-10-05T06:17:25.839Z,98431.94
2018-10-05T06:18:31.148Z,98435.91
2018-10-05T06:19:36.496Z,98435.14
2018-10-05T06:20:45.339Z,98438.43
2018-10-05T06:21:50.218Z,98436.72
2018-10-05T06:22:55.442Z,98437.73
2018-10-05T06:24:00.851Z,98440.89
2018-10-05T06:25:06.050Z,98438.87
2018-10-05T06:26:10.583Z,98442.28
2018-10-05T06:27:16.019Z,98438.37
2018-10-05T06:28:20.627Z,98448.44
2018-10-05T06:29:25.554Z,98449.34
2018-10-05T06:30:30.407Z,98447.73
2018-10-05T06:31:35.209Z,98445.89
2018-10-05T06:32:40.733Z,98448.45
2018-10-05T06:33:46.624Z,98442.66
2018-10-05T06:34:51.535Z,98445.28
2018-10-05T06:35:56.313Z,98441.93
2018-10-05T06:37:01.908Z,98450.03
2018-10-05T06:38:06.525Z,98445.98
2018-10-05T06:39:11.628Z,98445.34
2018-10-05T06:40:17.193Z,98444.69
2018-10-05T06:41:22.197Z,98449.08
2018-10-05T06:42:28.744Z,98450.36
2018-10-05T06:43:33.867Z,98449.41
2018-10-05T06:44:40.104Z,98451.37
2018-10-05T06:45:45.314Z,98446.71
2018-10-05T06:46:50.149Z,98450.14
2018-10-05T06:47:57.094Z,98452.77
2018-10-05T06:49:03.759Z,98449.83
2018-10-05T06:50:09.761Z,98452.58
2018-10-05T06:51:14.634Z,98457.16
2018-10-05T06:52:19.551Z,98450.15
2018-10-05T06:53:24.592Z,98454.08
2018-10-05T06:54:29.267Z,98452.91
2018-10-05T06:55:34.516Z,98455.70
2018-10-05T06:56:39.044Z,98450.64
2018-10-05T06:57:43.669Z,98452.48
2018-10-05T06:58:48.513Z,98446.34
2018-10-05T06:59:53.085Z,98446.25
2018-10-05T07:00:57.614Z,98448.89
2018-10-05T07:02:02.503Z,98445.14
2018-10-05T07:03:08.840Z,98447.44
2018-10-05T07:04:13.365Z,98443.38
2018-10-05T07:05:18.571Z,98443.73
2018-10-05T07:06:23.082Z,98444.51
2018-10-05T07:07:27.693Z,98443.17
2018-10-05T07:08:34.755Z,98444.55
2018-10-05T07:09:39.470Z,98444.80
2018-10-05T07:10:44.673Z,98448.02
2018-10-05T07:11:49.723Z,98442.27
2018-10-05T07:12:54.319Z,98449.82
2018-10-05T07:13:58.976Z,98451.40
2018-10-05T07:15:03.851Z,98454.74
2018-10-05T07:16:08.449Z,98459.39
2018-10-05T07:17:13.121Z,98451.64
2018-10-05T07:18:18.430Z,98450.91
2018-10-05T07:19:23.014Z,98450.06
2018-10-05T07:20:29.296Z,98449.14
2018-10-05T07:21:34.836Z,98451.77
2018-10-05T07:22:40.088Z,98453.77
2018-10-05T07:23:45.625Z,98445.98
2018-10-05T07:24:50.182Z,98451.81
2018-10-05T07:25:55.323Z,98446.55
2018-10-05T07:27:01.044Z,98442.02
2018-10-05T07:28:05.843Z,98448.56
2018-10-05T07:29:11.155Z,98450.52
2018-10-05T07:30:16.253Z,98452.59
2018-10-05T07:31:22.013Z,98445.27
2018-10-05T07:32:26.884Z,98450.30
2018-10-05T07:33:31.688Z,98448.27
2018-10-05T07:34:37.773Z,98448.41
2018-10-05T07:35:43.751Z,98445.83
2018-10-05T07:36:49.834Z,98442.38
2018-10-05T07:37:54.406Z,98446.90
2018-10-05T07:38:58.877Z,98444.30
2018-10-05T07:40:03.441Z,98446.19
2018-10-05T07:41:08.221Z,98452.42
2018-10-05T07:42:16.854Z,98453.42
2018-10-05T07:43:22.819Z,98454.31
2018-10-05T07:44:28.105Z,98458.98
2018-10-05T07:45:32.694Z,98453.87
2018-10-05T07:46:37.876Z,98449.62
2018-10-05T07:47:43.634Z,98451.08
2018-10-05T07:48:50.006Z,98455.22
2018-10-05T07:49:54.509Z,98452.00
2018-10-05T07:50:59.163Z,98457.62
2018-10-05T07:52:04.263Z,98451.17
2018-10-05T07:53:09.814Z,98450.88
2018-10-05T07:54:16.146Z,98453.05
2018-10-05T07:55:20.693Z,98447.27
2018-10-05T07:56:25.820Z,98450.03
2018-10-05T07:57:30.642Z,98451.23
2018-10-05T07:58:35.370Z,98444.08
2018-10-05T07:59:40.994Z,98440.30
2018-10-05T08:00:45.814Z,98450.16
2018-10-05T08:01:50.671Z,98448.02
2018-10-05T08:02:55.305Z,98442.02
2018-10-05T08:04:00.466Z,98445.87
2018-10-05T08:05:04.985Z,98441.67
2018-10-05T08:06:10.612Z,98443.14
2018-10-05T08:07:15.649Z,98443.41
2018-10-05T08:08:21.793Z,98441.53
2018-10-05T08:09:26.661Z,98440.59
2018-10-05T08:10:31.621Z,98444.74
2018-10-05T08:11:36.366Z,98441.88
2018-10-05T08:12:41.556Z,98441.23
2018-10-05T08:13:46.918Z,98439.26
2018-10-05T08:14:51.522Z,98439.39
2018-10-05T08:15:59.182Z,98439.92
2018-10-05T08:17:03.771Z,98446.42
2018-10-05T08:18:08.495Z,98448.81
2018-10-05T08:19:13.070Z,98449.67
2018-10-05T08:20:18.785Z,98450.58
2018-10-05T08:21:24.423Z,98445.02
2018-10-05T08:22:31.701Z,98447.08
2018-10-05T08:23:36.515Z,98451.92
2018-10-05T08:24:41.065Z,98447.38
2018-10-05T08:25:45.585Z,98445.72
2018-10-05T08:26:50.527Z,98452.11
2018-10-05T08:27:55.903Z,98445.64
2018-10-05T08:29:00.514Z,98445.64
2018-10-05T08:30:05.311Z,98445.68
2018-10-05T08:31:10.189Z,98443.48
2018-10-05T08:32:15.432Z,98442.69
2018-10-05T08:33:20.599Z,98438.53
2018-10-05T08:34:26.816Z,98437.33
2018-10-05T08:35:31.376Z,98434.62
2018-10-05T08:36:36.907Z,98436.78
2018-10-05T08:37:41.409Z,98433.60
2018-10-05T08:38:46.518Z,98431.55
2018-10-05T08:39:52.390Z,98433.42
2018-10-05T08:40:57.714Z,98433.77
2018-10-05T08:42:02.912Z,98432.13
2018-10-05T08:43:07.485Z,98425.39
2018-10-05T08:44:12.464Z,98431.51
2018-10-05T08:45:17.540Z,98429.70
2018-10-05T08:46:22.085Z,98425.41
2018-10-05T08:47:26.611Z,98430.55
2018-10-05T08:48:31.183Z,98431.84
2018-10-05T08:49:36.699Z,98424.94
2018-10-05T08:50:41.252Z,98426.69
2018-10-05T08:51:46.220Z,98418.41
2018-10-05T08:52:50.774Z,98418.27
2018-10-05T08:53:56.434Z,98409.31
2018-10-05T08:55:01.035Z,98410.83
2018-10-05T08:56:05.596Z,98413.77
2018-10-05T08:57:10.177Z,98408.25
2018-10-05T08:58:16.233Z,98395.56
2018-10-05T08:59:20.746Z,98399.00
2018-10-05T09:00:25.332Z,98393.65
2018-10-05T09:01:30.434Z,98393.44
2018-10-05T09:02:35.765Z,98386.97
2018-10-05T09:03:40.276Z,98387.84
2018-10-05T09:04:46.132Z,98386.09
2018-10-05T09:05:50.755Z,98382.08
2018-10-05T09:06:55.359Z,98381.41
2018-10-05T09:07:59.973Z,98381.11
2018-10-05T09:09:05.641Z,98377.55
2018-10-05T09:10:12.560Z,98380.86
2018-10-05T09:11:19.187Z,98378.48
2018-10-05T09:12:23.690Z,98375.14
2018-10-05T09:13:28.200Z,98376.16
2018-10-05T09:14:32.812Z,98378.61
2018-10-05T09:15:40.182Z,98373.84
2018-10-05T09:16:45.216Z,98374.76
2018-10-05T09:17:52.788Z,98371.97
2018-10-05T09:18:58.896Z,98373.55
2018-10-05T09:20:03.367Z,98365.10
2018-10-05T09:21:07.905Z,98364.63
2018-10-05T09:22:12.769Z,98362.45
2018-10-05T09:23:17.445Z,98361.76
2018-10-05T09:24:25.469Z,98371.72
2018-10-05T09:25:30.189Z,98352.52
2018-10-05T09:26:35.357Z,98354.17
2018-10-05T09:27:39.854Z,98353.69
2018-10-05T09:28:46.586Z,98366.30
2018-10-05T09:29:51.174Z,98363.20
2018-10-05T09:30:56.050Z,98352.73
2018-10-05T09:32:00.584Z,98357.47
2018-10-05T09:33:05.141Z,98344.21
2018-10-05T09:34:10.486Z,98347.91
2018-10-05T09:35:16.008Z,98353.50
2018-10-05T09:36:20.603Z,98342.48
2018-10-05T09:37:27.540Z,98342.88
2018-10-05T09:38:32.139Z,98362.83
2018-10-05T09:39:38.258Z,98350.34
2018-10-05T09:40:44.708Z,98347.48
2018-10-05T09:41:50.765Z,98343.14
2018-10-05T09:42:56.066Z,98348.36
2018-10-05T09:44:02.377Z,98343.56
2018-10-05T09:45:12.117Z,98343.72
2018-10-05T09:46:16.997Z,98330.81
2018-10-05T09:47:23.697Z,98345.09
2018-10-05T09:48:28.950Z,98332.66
2018-10-05T09:49:33.451Z,98328.88
2018-10-05T09:50:39.703Z,98334.98
2018-10-05T09:51:45.333Z,98339.13
2018-10-05T09:52:50.037Z,98336.97
2018-10-05T09:53:54.666Z,98333.55
2018-10-05T09:54:59.364Z,98327.13
2018-10-05T09:56:04.154Z,98320.56
2018-10-05T09:57:08.992Z,98318.94
2018-10-05T09:58:14.579Z,98329.36
2018-10-05T09:59:22.676Z,98326.26
2018-10-05T10:00:35.962Z,98330.22
2018-10-05T10:01:45.972Z,98313.62
2018-10-05T10:02:55.787Z,98314.05
2018-10-05T10:04:00.554Z,98313.20
2018-10-05T10:05:05.276Z,98311.13
2018-10-05T10:06:09.763Z,98309.09
2018-10-05T10:07:15.638Z,98308.11
2018-10-05T10:08:20.528Z,98303.19
2018-10-05T10:09:25.882Z,98308.24
2018-10-05T10:10:32.677Z,98305.27
2018-10-05T10:11:37.226Z,98304.39
2018-10-05T10:12:41.820Z,98304.66
2018-10-05T10:13:48.528Z,98302.98
2018-10-05T10:14:53.982Z,98300.02
2018-10-05T10:15:58.590Z,98303.19
2018-10-05T10:17:04.171Z,98302.44
2018-10-05T10:18:08.729Z,98300.48
2018-10-05T10:19:13.525Z,98295.48
2018-10-05T10:20:18.048Z,98289.44
2018-10-05T10:21:24.648Z,98290.98
2018-10-05T10:22:30.373Z,98293.00
2018-10-05T10:23:34.933Z,98290.16
2018-10-05T10:24:40.568Z,98288.61
2018-10-05T10:25:45.792Z,98290.48
2018-10-05T10:26:50.446Z,98283.12
2018-10-05T10:27:57.843Z,98281.20
2018-10-05T10:29:06.098Z,98275.53
2018-10-05T10:30:12.814Z,98268.00
2018-10-05T10:43:53.855Z,98253.84
2018-10-05T10:45:00.294Z,98250.35
2018-10-05T10:46:10.813Z,98248.28
2018-10-05T10:47:16.621Z,98244.97
2018-10-05T10:48:21.603Z,98243.90
2018-10-05T10:49:28.520Z,98249.61
2018-10-05T10:50:33.229Z,98243.88
2018-10-05T10:51:37.820Z,98239.63
2018-10-05T10:52:42.398Z,98242.83
2018-10-05T10:53:47.013Z,98232.47
2018-10-05T10:54:52.022Z,98230.03
2018-10-05T10:55:57.428Z,98233.89
2018-10-05T10:57:02.682Z,98228.71
2018-10-05T10:58:08.345Z,98229.20
2018-10-05T10:59:12.907Z,98223.93
2018-10-05T11:00:17.684Z,98230.41
2018-10-05T11:01:23.420Z,98227.84
2018-10-05T11:02:29.066Z,98231.92
2018-10-05T11:03:38.042Z,98228.06
2018-10-05T11:04:43.571Z,98217.03
2018-10-05T11:05:48.219Z,98217.66
2018-10-05T11:06:52.724Z,98219.38
2018-10-05T11:07:57.301Z,98210.13
2018-10-05T11:09:02.133Z,98196.61
2018-10-05T11:10:07.712Z,98206.94
2018-10-05T11:11:12.364Z,98204.47
2018-10-05T11:12:16.998Z,98211.67
2018-10-05T11:13:21.795Z,98209.80
2018-10-05T11:14:26.337Z,98210.51
2018-10-05T11:15:32.323Z,98212.27
2018-10-05T11:16:42.715Z,98216.09
2018-10-05T11:17:47.506Z,98216.73
2018-10-05T11:18:52.099Z,98212.64
2018-10-05T11:19:56.655Z,98208.52
2018-10-05T11:21:02.990Z,98208.42
2018-10-05T11:22:10.071Z,98207.27
2018-10-05T11:23:15.827Z,98201.07
2018-10-05T11:24:21.364Z,98199.60
2018-10-05T11:25:25.839Z,98205.63
2018-10-05T11:26:30.697Z,98203.12
2018-10-05T11:27:36.756Z,98192.16
2018-10-05T11:28:41.809Z,98195.16
2018-10-05T11:29:47.034Z,98200.34
2018-10-05T11:30:51.618Z,98194.52
2018-10-05T11:31:56.189Z,98200.80
2018-10-05T11:33:01.326Z,98196.50
2018-10-05T11:34:06.029Z,98197.72
2018-10-05T11:35:12.637Z,98192.42
2018-10-05T11:36:17.220Z,98183.67
2018-10-05T11:37:22.127Z,98181.80
2018-10-05T11:38:28.646Z,98192.84
2018-10-05T11:39:33.193Z,98190.73
2018-10-05T11:40:37.751Z,98198.47
2018-10-05T11:41:42.835Z,98188.62
2018-10-05T11:42:47.822Z,98184.63
2018-10-05T11:43:55.747Z,98179.33
2018-10-05T11:45:00.348Z,98173.09
2018-10-05T11:46:05.187Z,98165.33
2018-10-05T11:47:11.309Z,98164.51
2018-10-05T11:48:16.192Z,98163.48
2018-10-05T11:49:20.924Z,98162.42
2018-10-05T11:50:25.561Z,98162.86
2018-10-05T11:51:30.093Z,98161.63
2018-10-05T11:52:34.715Z,98146.98
2018-10-05T11:53:39.219Z,98155.69
2018-10-05T11:54:44.075Z,98159.47
2018-10-05T11:55:49.561Z,98158.27
2018-10-05T11:56:54.966Z,98156.09
2018-10-05T11:57:59.632Z,98144.23
2018-10-05T11:59:05.403Z,98137.87
2018-10-05T12:00:10.448Z,98140.45
2018-10-05T12:01:15.521Z,98143.58
2018-10-05T12:02:20.817Z,98140.55
2018-10-05T12:03:25.783Z,98133.91
2018-10-05T12:04:30.349Z,98129.96
2018-10-05T12:05:35.805Z,98133.77
2018-10-05T12:06:40.313Z,98131.36
2018-10-05T12:07:46.069Z,98131.49
2018-10-05T12:08:50.584Z,98131.66
2018-10-05T12:09:56.746Z,98128.91
2018-10-05T12:11:02.366Z,98136.57
2018-10-05T12:12:07.946Z,98129.14
2018-10-05T12:13:12.475Z,98135.08
2018-10-05T12:14:17.367Z,98129.64
2018-10-05T12:15:22.102Z,98128.28
2018-10-05T12:16:26.682Z,98120.44
2018-10-05T12:17:32.388Z,98124.74
2018-10-05T12:18:37.633Z,98115.94
2018-10-05T12:19:43.175Z,98121.30
2018-10-05T12:20:48.691Z,98117.51
2018-10-05T12:21:53.708Z,98112.95
2018-10-05T12:22:59.299Z,98109.63
2018-10-05T12:24:03.863Z,98113.44
2018-10-05T12:25:08.638Z,98102.45
2018-10-05T12:26:14.210Z,98105.89
2018-10-05T12:27:18.781Z,98102.67
2018-10-05T12:28:23.280Z,98103.43
2018-10-05T12:29:27.823Z,98105.84
2018-10-05T12:30:32.429Z,98105.79
2018-10-05T12:31:37.031Z,98103.39
2018-10-05T12:32:42.603Z,98096.98
2018-10-05T12:33:47.262Z,98100.27
2018-10-05T12:34:52.737Z,98091.23
2018-10-05T12:35:57.237Z,98097.38
2018-10-05T12:37:01.768Z,98092.62
2018-10-05T12:38:06.326Z,98096.09
2018-10-05T12:39:11.699Z,98097.44
2018-10-05T12:40:16.234Z,98096.59
2018-10-05T12:41:20.734Z,98093.39
2018-10-05T12:42:25.206Z,98089.52
2018-10-05T12:43:31.560Z,98088.55
2018-10-05T12:44:36.266Z,98094.00
2018-10-05T12:45:43.800Z,98092.45
2018-10-05T12:46:50.302Z,98087.76
2018-10-05T12:47:55.753Z,98096.16
2018-10-05T12:49:06.166Z,98093.20
2018-10-05T12:50:11.309Z,98089.54
2018-10-05T12:51:15.861Z,98094.13
2018-10-05T12:52:21.356Z,98093.38
2018-10-05T12:53:26.632Z,98088.47
2018-10-05T12:54:31.178Z,98088.65
2018-10-05T12:55:39.933Z,98081.77
2018-10-05T12:56:45.254Z,98078.70
2018-10-05T12:57:49.867Z,98085.10
2018-10-05T12:58:58.125Z,98080.23
2018-10-05T13:00:04.687Z,98082.02
2018-10-05T13:01:10.064Z,98072.09
2018-10-05T13:02:14.540Z,98072.58
2018-10-05T13:03:19.065Z,98076.19
2018-10-05T13:04:23.568Z,98070.86
2018-10-05T13:05:31.093Z,98072.26
2018-10-05T13:06:37.468Z,98071.17
2018-10-05T13:07:41.974Z,98071.19
2018-10-05T13:08:48.571Z,98067.03
2018-10-05T13:09:55.159Z,98065.52
2018-10-05T13:11:02.422Z,98069.21